Search for airport 
image banner adimage banner adimage banner ad
image banner ad

KEAG - Eagle Grove Muni

Located in Eagle Grove, United States

ICAO - EAG, IATA -

Data provided by Airmate  

General information

Coordinates: N42°42'36" W93°54'58"
Elevation is 1132 feet MSL.
Magnetic variation is 03° East
View others Airports in Iowa

Operational data

Special qualification required
Current time UTC:
Current local time:
Weather at : KCAV - Clarion Muni ( 13 km )
METAR: KCAV 181755Z AUTO 22005KT 10SM CLR 31/11 A2988 RMK A01
View NOTAMs / SUP AIP / TFR affecting this airport [VIEW]
Communications frequencies: [VIEW]

Runways:

RWY identifierQFULength (ft)Width (ft)SurfaceLDA (ft)
0116°2389120GRASS
19196°2389120GRASS
13136°350060CONC
31316°350060CONC

Airport contact information

Address: Eagle Grove United States

Satellite view of KEAG